Becks Mills, Ohio
Current Conditions -  °F | °C
As of 6:56 AM on Saturday 25 Oct 2014 (Local Time) from KBJJ Reporting Station
Few Clouds Few Clouds  
Wind Chill: 42°   Ceiling: Unl
Heat Index: 46°   Visibility: 9mi
Dew Point: 40°   Wind: 7mph
Humidity: 79%   Direction: 220°SW
Pressure: 29.94"   Gusts: NA
Location:  40.5444°N, 81.851°W
Report Text: KBJJ 251056Z AUTO 22006KT 9SM FEW090 08/04 A2994 RMK AO2 SLP140 T00780044 TSNO
Loading
Personal Weather Stations






























Interactive Weather Map
Tropical Storm Tracking
New forecast layout! Learn more

10-Day Weather Forecast

Advertisements
Track Severe Weather on mobile